createdAt,value
2022-12-18T00:04:44.221Z,31.30
2022-12-18T00:19:45.668Z,31.30
2022-12-18T00:34:47.116Z,31.20
2022-12-18T00:49:48.575Z,31.20
2022-12-18T01:04:50.046Z,31.20
2022-12-18T01:19:51.531Z,31.00
2022-12-18T01:34:52.981Z,30.90
2022-12-18T01:49:54.445Z,30.70
2022-12-18T02:04:55.909Z,30.80
2022-12-18T02:19:57.390Z,30.60
2022-12-18T02:34:58.872Z,30.70
2022-12-18T02:50:00.348Z,30.50
2022-12-18T03:05:02.931Z,30.50
2022-12-18T03:20:04.384Z,30.40
2022-12-18T03:35:05.863Z,30.20
2022-12-18T03:50:12.426Z,30.10
2022-12-18T04:05:14.225Z,30.20
2022-12-18T04:20:15.681Z,30.00
2022-12-18T04:35:17.165Z,30.00
2022-12-18T04:50:18.641Z,30.00
2022-12-18T05:05:20.105Z,31.00
2022-12-18T05:20:21.573Z,30.00
2022-12-18T05:35:23.041Z,29.90
2022-12-18T05:50:24.538Z,29.80
2022-12-18T06:05:26.470Z,29.70
2022-12-18T06:20:33.113Z,29.60
2022-12-18T06:35:35.056Z,29.50
2022-12-18T06:50:36.555Z,29.60
2022-12-18T07:05:38.026Z,29.40
2022-12-18T07:20:39.490Z,29.50
2022-12-18T07:35:40.972Z,29.50
2022-12-18T07:50:42.457Z,29.60
2022-12-18T08:05:43.926Z,29.70
2022-12-18T08:20:45.396Z,30.00
2022-12-18T08:35:46.858Z,30.00
2022-12-18T08:50:48.327Z,29.80
2022-12-18T09:05:49.784Z,30.20
2022-12-18T09:20:51.311Z,30.20
2022-12-18T09:35:52.757Z,30.20
2022-12-18T09:50:54.226Z,29.80
2022-12-18T10:05:55.678Z,29.30
2022-12-18T10:20:57.116Z,28.70
2022-12-18T10:35:58.588Z,28.70
2022-12-18T10:51:15.329Z,29.10
2022-12-18T11:06:16.804Z,28.40
2022-12-18T11:21:18.268Z,27.80
2022-12-18T11:36:19.727Z,28.10
2022-12-18T11:51:26.241Z,28.20
2022-12-18T12:06:28.645Z,28.00
2022-12-18T12:21:30.088Z,27.60
2022-12-18T12:36:31.692Z,28.40
2022-12-18T12:51:33.146Z,28.70
2022-12-18T13:06:34.673Z,28.60
2022-12-18T13:21:36.390Z,28.90
2022-12-18T13:36:37.845Z,29.10
2022-12-18T13:51:39.296Z,29.20
2022-12-18T14:06:40.739Z,29.70
2022-12-18T14:21:42.215Z,30.00
2022-12-18T14:36:43.659Z,29.80
2022-12-18T14:51:45.127Z,30.00
2022-12-18T15:06:46.607Z,29.10
2022-12-18T15:21:48.068Z,28.80
2022-12-18T15:36:49.559Z,29.00
2022-12-18T15:51:51.022Z,29.10
2022-12-18T16:07:14.389Z,29.30
2022-12-18T16:22:13.881Z,29.50
2022-12-18T16:37:15.341Z,29.50
2022-12-18T16:52:16.783Z,29.50
2022-12-18T17:07:19.675Z,29.60
2022-12-18T17:22:21.139Z,29.50
2022-12-18T17:37:22.596Z,29.50
2022-12-18T17:52:24.049Z,29.50
2022-12-18T18:07:26.956Z,29.60
2022-12-18T18:22:28.498Z,29.80
2022-12-18T18:37:30.106Z,29.90
2022-12-18T18:52:31.606Z,29.80
2022-12-18T19:07:33.073Z,29.90
2022-12-18T19:22:34.536Z,29.90
2022-12-18T19:37:35.986Z,29.90
2022-12-18T19:52:37.432Z,29.80
2022-12-18T20:07:38.889Z,29.80
2022-12-18T20:22:42.299Z,29.90
2022-12-18T20:37:49.810Z,30.00
2022-12-18T20:52:52.335Z,30.00
2022-12-18T21:07:53.833Z,30.10
2022-12-18T21:22:57.316Z,30.30
2022-12-18T21:38:04.339Z,30.30
2022-12-18T21:53:07.293Z,30.20
2022-12-18T22:08:08.744Z,30.20
2022-12-18T22:23:10.262Z,29.90
2022-12-18T22:38:11.713Z,29.90
2022-12-18T22:53:14.312Z,29.70
2022-12-18T23:08:15.780Z,29.80
2022-12-18T23:23:17.225Z,29.60
2022-12-18T23:38:18.669Z,29.60
2022-12-18T23:53:20.111Z,29.50
